WetterOnline ( http://www.wetteronline.de )

Wetter aktuell Braunschweig

Aktuelles Wetter: Wernigerode (240m)

6-stündlich | Neueste Meldungen
Ortszeit Temperatur Wetter
Do, 26.04. 20:00 9.6° C wolkig
Do, 26.04. 14:00 9.1° C bewölkt
Do, 26.04. 8:00 8.2° C wolkig
Do, 26.04. 2:00 6.7° C wolkig
Mi, 25.04. 20:00 11.1° C bewölkt
Mi, 25.04. 14:00 14.4° C wolkig
Mi, 25.04. 8:00 13.9° C Sprühregen
Mi, 25.04. 2:00 10.3° C leichter Regen
Ortszeit Temperatur Wetter
Fr, 27.04. 0:30 8.2° C bewölkt
Fr, 27.04. 0:10 8.3° C bewölkt
Fr, 27.04. 0:00 8.5° C bedeckt
Do, 26.04. 23:50 8.5° C bedeckt
Do, 26.04. 23:40 8.7° C bedeckt
Do, 26.04. 23:30 8.5° C bewölkt
Do, 26.04. 23:00 8.2° C bewölkt
Do, 26.04. 22:30 6.8° C leicht bewölkt
Do, 26.04. 22:00 7.1° C wolkenlos
Do, 26.04. 21:30 7.5° C bewölkt
Ortszeit Relative Feuchte Sichtweite
Do, 26.04. 20:00 62% 50 km
Do, 26.04. 14:00 72% 70 km
Do, 26.04. 8:00 70% 45 km
Do, 26.04. 2:00 85% 28 km
Mi, 25.04. 20:00 74% 55 km
Mi, 25.04. 14:00 68% 14 km
Mi, 25.04. 8:00 66% 25 km
Mi, 25.04. 2:00 94% 4.0 km
Ortszeit Relative Feuchte Sichtweite
Fr, 27.04. 0:30 69% 30 km
Fr, 27.04. 0:10 68% -
Fr, 27.04. 0:00 66% 35 km
Do, 26.04. 23:50 66% -
Do, 26.04. 23:40 65% -
Do, 26.04. 23:30 65% 40 km
Do, 26.04. 23:00 69% 35 km
Do, 26.04. 22:30 75% 45 km
Do, 26.04. 22:00 75% 50 km
Do, 26.04. 21:30 73% 50 km
Ortszeit Niederschlagsmenge Niederschlagsart
Do, 26.04. 20:00 0.3 l/m2 in 12 Std. Regen
Do, 26.04. 14:00 0.2 l/m2 in 6 Std. Regen
Do, 26.04. 8:00 0.2 l/m2 in 12 Std. Regen
Do, 26.04. 2:00 0.0 l/m2 in 6 Std. -
Mi, 25.04. 20:00 0.4 l/m2 in 12 Std. Regen
Mi, 25.04. 14:00 0.1 l/m2 in 6 Std. Regen
Mi, 25.04. 8:00 0.1 l/m2 in 12 Std. Regen
Mi, 25.04. 2:00 0.1 l/m2 in 6 Std. Regen
Ortszeit Niederschlagsmenge Niederschlagsart
Fr, 27.04. 0:30 0.0 l/m2 in 1 Std. -
Fr, 27.04. 0:10 keine Meldung -
Fr, 27.04. 0:00 0.0 l/m2 in 1 Std. -
Do, 26.04. 23:50 keine Meldung -
Do, 26.04. 23:40 keine Meldung -
Do, 26.04. 23:30 0.0 l/m2 in 1 Std. -
Do, 26.04. 23:00 0.0 l/m2 in 1 Std. Regen
Do, 26.04. 22:30 0.0 l/m2 in 1 Std. -
Do, 26.04. 22:00 0.1 l/m2 in 1 Std. -
Do, 26.04. 21:30 0.1 l/m2 in 1 Std. -
Ortszeit Stärke Spitze Richtung
km/h Bft. km/h Grad Sektor
Do, 26.04. 20:00 14 3 61 250° W
Do, 26.04. 14:00 11 2 50 330° NW
Do, 26.04. 8:00 15 3 35 240° SW
Do, 26.04. 2:00 7 2 25 250° W
Mi, 25.04. 20:00 6 1 57 320° NW
Mi, 25.04. 14:00 22 4 61 270° W
Mi, 25.04. 8:00 14 3 32 230° SW
Mi, 25.04. 2:00 0 0 14 - -
Ortszeit Stärke Spitze Richtung
km/h Bft. km/h Grad Sektor
Fr, 27.04. 0:30 13 3 28 250° W
Fr, 27.04. 0:10 14 3 - 250° W
Fr, 27.04. 0:00 14 3 32 250° W
Do, 26.04. 23:50 14 3 - 250° W
Do, 26.04. 23:40 15 3 - 240° SW
Do, 26.04. 23:30 15 3 31 240° SW
Do, 26.04. 23:00 14 3 32 240° SW
Do, 26.04. 22:30 7 2 18 250° W
Do, 26.04. 22:00 7 2 26 290° W
Do, 26.04. 21:30 9 2 19 250° W
Ortszeit Untergrenze Bedeckung Gattung
total tief tief mittel hoch
Do, 26.04. 20:00 2700 m 5/8 7/8 - - -
Do, 26.04. 14:00 870 m 7/8 7/8 - - -
Do, 26.04. 8:00 810 m 5/8 5/8 - - -
Do, 26.04. 2:00 2100 m 6/8 6/8 - - -
Mi, 25.04. 20:00 1170 m 7/8 7/8 - - -
Mi, 25.04. 14:00 1020 m 6/8 6/8 - - -
Mi, 25.04. 8:00 1500 m 8/8 6/8 - - -
Mi, 25.04. 2:00 1350 m 8/8 8/8 - - -
Ortszeit Bedeckungsgrad in Achtel und Wolkenuntergrenze
Fr, 27.04. 0:30 7(3300m) 7(8700m)
Fr, 27.04. 0:10 7(3300m)
Fr, 27.04. 0:00 8(3000m)
Do, 26.04. 23:50 8(3000m)
Do, 26.04. 23:40 8(3000m)
Do, 26.04. 23:30 7(3000m)
Do, 26.04. 23:00 5(3000m)
Do, 26.04. 22:30 1(3300m) 3(3300m)
Do, 26.04. 22:00 keine Wolken
Do, 26.04. 21:30 6(2100m) 7(3000m)
Ortszeit Luftdruck NN (hPa) Tendenz (hPa in 3 Std.)
Do, 26.04. 20:00 1016 + 0,7
Do, 26.04. 14:00 1015 + 1,1
Do, 26.04. 8:00 1012 0,0
Do, 26.04. 2:00 1013 + 0,2
Mi, 25.04. 20:00 1011 + 0,7
Mi, 25.04. 14:00 1008 + 1,8
Mi, 25.04. 8:00 1006 - 1,2
Mi, 25.04. 2:00 1010 - 2,3
Ortszeit Luftdruck NN (hPa) Tendenz (hPa in 3 Std.)
Fr, 27.04. 0:30 1017 - 0,1
Fr, 27.04. 0:10 1017 keine Meldung
Fr, 27.04. 0:00 1017 + 0,3
Do, 26.04. 23:50 1017 keine Meldung
Do, 26.04. 23:40 1017 keine Meldung
Do, 26.04. 23:30 1017 - 0,2
Do, 26.04. 23:00 1017 + 0,9
Do, 26.04. 22:30 1018 + 1,2
Do, 26.04. 22:00 1018 + 1,1
Do, 26.04. 21:30 1018 + 1,5
Ortszeit Schneehöhe (cm)
Do, 26.04. 20:00 0
Do, 26.04. 14:00 0
Do, 26.04. 8:00 0
Do, 26.04. 2:00 0
Mi, 25.04. 20:00 0
Mi, 25.04. 14:00 0
Mi, 25.04. 8:00 0
Mi, 25.04. 2:00 0
Ortszeit Schneehöhe (cm)
Fr, 27.04. 0:30 0
Fr, 27.04. 0:10 0
Fr, 27.04. 0:00 0
Do, 26.04. 23:50 0
Do, 26.04. 23:40 0
Do, 26.04. 23:30 0
Do, 26.04. 23:00 0
Do, 26.04. 22:30 0
Do, 26.04. 22:00 0
Do, 26.04. 21:30 0
Link zu dieser Seite / Seite empfehlen

Das Wetter in ...